Time;durP1;ratioP1;P1;durP2;ratioP2;P2;SDS_P1;SDS_P2;PMS_P1;PMS_P2;Temp;Humidity;BMP_temperature;BMP_pressure;BME280_temperature;BME280_humidity;BME280_pressure;Samples;Min_cycle;Max_cycle;Signal;HPM_P1;HPM_P2
2022/11/19 00:02:12;;;;;;;20.90;13.03;;;;;;;;;;730383;191;1021450;-66
2022/11/19 00:04:38;;;;;;;21.83;12.50;;;;;;;;;;735593;190;1023419;-66
2022/11/19 00:07:04;;;;;;;23.80;12.70;;;;;;;;;;726710;191;920621;-65
2022/11/19 00:09:30;;;;;;;18.70;11.73;;;;;;;;;;724230;191;919869;-65
2022/11/19 00:14:28;;;;;;;19.00;10.57;;;;;;;;;;723551;193;916644;-65
2022/11/19 00:16:53;;;;;;;29.33;14.87;;;;;;;;;;733341;191;815859;-65
2022/11/19 00:19:19;;;;;;;23.90;13.77;;;;;;;;;;728732;189;919043;-65
2022/11/19 00:21:45;;;;;;;22.50;11.33;;;;;;;;;;737982;192;816668;-66
2022/11/19 00:24:11;;;;;;;22.30;13.90;;;;;;;;;;734240;187;919734;-65
2022/11/19 00:26:37;;;;;;;24.70;13.50;;;;;;;;;;732538;190;933533;-65
2022/11/19 00:29:03;;;;;;;23.30;11.93;;;;;;;;;;735190;188;919296;-65
2022/11/19 00:31:28;;;;;;;22.83;13.30;;;;;;;;;;731013;192;916161;-66
2022/11/19 00:33:54;;;;;;;23.00;13.60;;;;;;;;;;731171;189;919022;-66
2022/11/19 00:36:20;;;;;;;24.03;13.23;;;;;;;;;;736255;192;918735;-65
2022/11/19 00:38:46;;;;;;;19.17;11.50;;;;;;;;;;730219;192;919541;-65
2022/11/19 00:41:12;;;;;;;21.90;11.57;;;;;;;;;;730389;190;1017864;-65
2022/11/19 00:46:09;;;;;;;18.42;8.52;;;;;;;;;;737615;191;919423;-64
2022/11/19 00:48:35;;;;;;;24.83;13.13;;;;;;;;;;727214;192;919982;-65
2022/11/19 00:51:01;;;;;;;21.50;11.97;;;;;;;;;;727853;191;917776;-65
2022/11/19 00:53:27;;;;;;;21.43;13.00;;;;;;;;;;734430;189;919470;-65
2022/11/19 00:55:53;;;;;;;23.70;14.23;;;;;;;;;;730914;191;918847;-65
2022/11/19 00:58:19;;;;;;;15.03;7.23;;;;;;;;;;735387;188;923263;-64
2022/11/19 01:00:44;;;;;;;15.40;10.80;;;;;;;;;;734284;190;918660;-62
2022/11/19 01:03:10;;;;;;;22.60;12.53;;;;;;;;;;744715;187;922318;-65
2022/11/19 01:05:36;;;;;;;24.53;13.00;;;;;;;;;;741510;188;920056;-66
2022/11/19 01:08:02;;;;;;;17.53;9.77;;;;;;;;;;736877;188;920176;-66
2022/11/19 01:10:28;;;;;;;13.03;8.07;;;;;;;;;;741624;191;817321;-65
2022/11/19 01:15:25;;;;;;;19.00;11.53;;;;;;;;;;737420;191;816786;-66
2022/11/19 01:17:51;;;;;;;22.13;10.53;;;;;;;;;;732984;188;919288;-65
2022/11/19 01:20:17;;;;;;;29.77;14.73;;;;;;;;;;738579;191;917607;-65
2022/11/19 01:22:45;;;;;;;24.03;13.80;;;;;;;;;;731500;189;917219;-65
2022/11/19 01:25:09;;;;;;;23.80;14.32;;;;;;;;;;731355;191;919707;-65
2022/11/19 01:27:35;;;;;;;25.07;14.07;;;;;;;;;;732816;190;919459;-64
2022/11/19 01:30:00;;;;;;;23.50;13.00;;;;;;;;;;726577;190;918941;-65
2022/11/19 01:32:26;;;;;;;25.13;13.53;;;;;;;;;;734869;191;915914;-65
2022/11/19 01:34:52;;;;;;;18.37;9.93;;;;;;;;;;742790;191;622290;-66
2022/11/19 01:37:19;;;;;;;21.43;11.07;;;;;;;;;;741103;191;625161;-65
2022/11/19 01:39:45;;;;;;;21.70;11.40;;;;;;;;;;737004;191;903022;-66
2022/11/19 01:44:58;;;;;;;17.63;10.70;;;;;;;;;;737135;187;914815;-65
2022/11/19 01:47:24;;;;;;;21.17;11.10;;;;;;;;;;735153;190;908678;-64
2022/11/19 01:49:50;;;;;;;15.30;7.82;;;;;;;;;;732153;191;915704;-65
2022/11/19 01:52:16;;;;;;;17.63;10.90;;;;;;;;;;729773;191;919134;-67
2022/11/19 01:54:42;;;;;;;26.40;14.00;;;;;;;;;;734312;191;919150;-65
2022/11/19 01:57:07;;;;;;;16.87;8.83;;;;;;;;;;726372;191;919761;-66
2022/11/19 01:59:33;;;;;;;30.25;13.43;;;;;;;;;;721292;193;920435;-65
2022/11/19 02:01:59;;;;;;;17.43;10.67;;;;;;;;;;727701;192;918241;-66
2022/11/19 02:04:25;;;;;;;20.13;10.30;;;;;;;;;;727904;190;918759;-66
2022/11/19 02:06:51;;;;;;;12.77;7.70;;;;;;;;;;730704;191;927619;-65
2022/11/19 02:09:17;;;;;;;28.50;14.27;;;;;;;;;;729283;188;919436;-64
2022/11/19 02:11:48;;;;;;;20.90;10.00;;;;;;;;;;735387;191;916816;-65
2022/11/19 02:14:20;;;;;;;23.43;13.33;;;;;;;;;;737943;187;919426;-64
2022/11/19 02:17:01;;;;;;;20.17;12.95;;;;;;;;;;736078;190;918741;-65
2022/11/19 02:19:32;;;;;;;17.00;8.00;;;;;;;;;;735424;188;918716;-64
2022/11/19 02:21:59;;;;;;;26.17;13.83;;;;;;;;;;732525;190;911875;-65
2022/11/19 02:24:29;;;;;;;20.17;13.23;;;;;;;;;;732645;190;921634;-64
2022/11/19 02:26:56;;;;;;;20.70;10.80;;;;;;;;;;731309;191;1021731;-65
2022/11/19 02:29:43;;;;;;;21.70;12.67;;;;;;;;;;722728;193;919633;-65
2022/11/19 02:32:10;;;;;;;24.07;12.90;;;;;;;;;;720901;192;920790;-66
2022/11/19 02:34:40;;;;;;;24.00;13.20;;;;;;;;;;730914;191;919463;-64
2022/11/19 02:37:08;;;;;;;20.37;13.23;;;;;;;;;;732665;191;919177;-65
2022/11/19 02:39:34;;;;;;;24.80;14.23;;;;;;;;;;723475;191;920583;-64
2022/11/19 02:42:01;;;;;;;25.30;13.37;;;;;;;;;;724439;192;921357;-66
2022/11/19 02:47:05;;;;;;;28.27;16.30;;;;;;;;;;726956;192;1022719;-66
2022/11/19 02:49:30;;;;;;;24.10;15.37;;;;;;;;;;729847;192;919696;-65
2022/11/19 02:51:56;;;;;;;22.02;10.20;;;;;;;;;;728242;191;918905;-64
2022/11/19 02:54:22;;;;;;;15.10;8.15;;;;;;;;;;731334;188;918860;-66
2022/11/19 02:56:50;;;;;;;21.80;11.87;;;;;;;;;;735519;191;918918;-66
2022/11/19 03:06:49;;;;;;;27.87;14.93;;;;;;;;;;734254;192;921977;-65
2022/11/19 03:09:15;;;;;;;12.67;8.07;;;;;;;;;;734789;191;919233;-65
2022/11/19 03:11:41;;;;;;;22.30;12.93;;;;;;;;;;735585;191;917638;-67
2022/11/19 03:16:49;;;;;;;18.83;9.70;;;;;;;;;;736706;186;920709;-66
2022/11/19 03:19:18;;;;;;;26.17;9.90;;;;;;;;;;734051;188;816433;-65
2022/11/19 03:21:45;;;;;;;29.40;13.20;;;;;;;;;;731781;190;917172;-64
2022/11/19 03:24:12;;;;;;;26.17;14.87;;;;;;;;;;737752;190;913246;-67
2022/11/19 03:26:38;;;;;;;23.80;14.57;;;;;;;;;;746605;190;816094;-65
2022/11/19 03:29:04;;;;;;;26.07;12.57;;;;;;;;;;719612;190;914758;-66
2022/11/19 03:31:30;;;;;;;23.93;12.80;;;;;;;;;;718090;194;818934;-66
2022/11/19 03:33:56;;;;;;;17.77;9.07;;;;;;;;;;731852;189;919252;-65
2022/11/19 03:36:23;;;;;;;26.43;14.37;;;;;;;;;;730502;190;917091;-65
2022/11/19 03:38:49;;;;;;;30.73;14.47;;;;;;;;;;732473;191;818225;-64
2022/11/19 03:41:14;;;;;;;30.02;15.52;;;;;;;;;;729017;191;918913;-65
2022/11/19 03:43:40;;;;;;;25.20;12.52;;;;;;;;;;733507;190;918560;-65
2022/11/19 03:46:06;;;;;;;21.80;11.13;;;;;;;;;;727411;192;919744;-64
2022/11/19 03:48:32;;;;;;;29.10;13.93;;;;;;;;;;732578;188;915718;-64
2022/11/19 03:50:58;;;;;;;16.23;10.98;;;;;;;;;;733990;192;915661;-65
2022/11/19 03:53:24;;;;;;;24.77;13.30;;;;;;;;;;728489;191;919984;-64
2022/11/19 03:55:52;;;;;;;18.87;9.33;;;;;;;;;;728295;192;920511;-63
2022/11/19 03:58:18;;;;;;;23.77;12.60;;;;;;;;;;731560;191;916582;-63
2022/11/19 04:00:44;;;;;;;23.80;14.87;;;;;;;;;;736617;187;888457;-65
2022/11/19 04:03:10;;;;;;;20.87;12.57;;;;;;;;;;731125;192;889648;-65
2022/11/19 04:05:36;;;;;;;20.27;12.32;;;;;;;;;;733454;192;919050;-65
2022/11/19 04:08:02;;;;;;;28.20;16.00;;;;;;;;;;733964;192;918776;-64
2022/11/19 04:10:28;;;;;;;31.63;14.80;;;;;;;;;;727888;192;919100;-65
2022/11/19 04:12:54;;;;;;;22.07;14.33;;;;;;;;;;728583;190;919172;-66
2022/11/19 04:15:20;;;;;;;28.77;16.40;;;;;;;;;;728480;191;929800;-64
2022/11/19 04:17:46;;;;;;;23.90;14.47;;;;;;;;;;721932;191;920903;-66
2022/11/19 04:20:11;;;;;;;27.87;15.37;;;;;;;;;;720911;193;920843;-66
2022/11/19 04:22:37;;;;;;;22.00;13.53;;;;;;;;;;726117;188;919797;-65
2022/11/19 04:25:03;;;;;;;25.53;14.23;;;;;;;;;;729133;191;919390;-67
2022/11/19 04:27:29;;;;;;;24.37;13.50;;;;;;;;;;734130;187;915673;-65
2022/11/19 04:29:55;;;;;;;26.60;14.67;;;;;;;;;;731193;189;918876;-65
2022/11/19 04:32:21;;;;;;;24.37;15.00;;;;;;;;;;735255;190;912626;-64
2022/11/19 04:34:47;;;;;;;24.90;15.50;;;;;;;;;;733465;190;912126;-65
2022/11/19 04:37:12;;;;;;;25.47;14.80;;;;;;;;;;729286;190;920609;-67
2022/11/19 04:39:38;;;;;;;26.00;13.00;;;;;;;;;;736232;188;911751;-65
2022/11/19 04:42:04;;;;;;;21.98;11.80;;;;;;;;;;730673;191;918431;-65
2022/11/19 04:44:31;;;;;;;38.23;20.23;;;;;;;;;;728650;190;946776;-66
2022/11/19 04:46:56;;;;;;;38.43;21.97;;;;;;;;;;732747;191;918296;-67
2022/11/19 04:49:22;;;;;;;37.30;22.10;;;;;;;;;;728209;190;919070;-64
2022/11/19 04:51:47;;;;;;;34.47;19.57;;;;;;;;;;727851;191;920273;-65
2022/11/19 04:54:13;;;;;;;26.50;16.77;;;;;;;;;;729603;187;917717;-66
2022/11/19 04:56:39;;;;;;;35.23;22.30;;;;;;;;;;734763;191;916363;-64
2022/11/19 04:59:05;;;;;;;36.20;21.80;;;;;;;;;;729610;189;820168;-64
2022/11/19 05:01:31;;;;;;;58.50;29.80;;;;;;;;;;729545;190;919856;-66
2022/11/19 05:03:57;;;;;;;56.30;31.57;;;;;;;;;;733870;191;998677;-65
2022/11/19 05:06:23;;;;;;;43.55;26.83;;;;;;;;;;730567;191;919536;-65
2022/11/19 05:08:48;;;;;;;28.77;17.80;;;;;;;;;;729647;191;919194;-65
2022/11/19 05:11:14;;;;;;;33.30;21.30;;;;;;;;;;735777;190;816910;-64
2022/11/19 05:13:40;;;;;;;52.63;28.63;;;;;;;;;;730917;191;854047;-67
2022/11/19 05:16:06;;;;;;;44.17;28.27;;;;;;;;;;730216;190;918355;-65
2022/11/19 05:18:32;;;;;;;43.67;29.17;;;;;;;;;;728775;190;916505;-65
2022/11/19 05:20:58;;;;;;;33.70;19.73;;;;;;;;;;739713;188;922225;-64
2022/11/19 05:23:24;;;;;;;34.97;19.50;;;;;;;;;;729968;191;916892;-66
2022/11/19 05:25:49;;;;;;;34.33;19.77;;;;;;;;;;727419;191;933253;-66
2022/11/19 05:28:15;;;;;;;29.13;16.20;;;;;;;;;;735248;191;924697;-64
2022/11/19 05:30:41;;;;;;;48.87;29.90;;;;;;;;;;730470;190;1021325;-65
2022/11/19 05:33:07;;;;;;;39.45;25.65;;;;;;;;;;728633;191;1021471;-67
2022/11/19 05:35:33;;;;;;;34.40;22.30;;;;;;;;;;734379;191;919893;-67
2022/11/19 05:37:59;;;;;;;40.93;25.47;;;;;;;;;;728376;191;938474;-64
2022/11/19 05:40:24;;;;;;;39.13;24.50;;;;;;;;;;736115;189;917894;-64
2022/11/19 05:42:50;;;;;;;35.67;21.17;;;;;;;;;;741476;190;919279;-64
2022/11/19 05:45:16;;;;;;;28.53;16.97;;;;;;;;;;736055;190;917197;-64
2022/11/19 05:47:42;;;;;;;30.30;19.10;;;;;;;;;;737571;188;819331;-65
2022/11/19 05:50:08;;;;;;;30.93;19.57;;;;;;;;;;723706;192;919087;-64
2022/11/19 05:52:34;;;;;;;65.63;38.83;;;;;;;;;;727559;191;918242;-64
2022/11/19 05:55:00;;;;;;;41.43;24.60;;;;;;;;;;730428;192;920349;-64
2022/11/19 05:57:26;;;;;;;41.60;24.00;;;;;;;;;;733224;192;917203;-64
2022/11/19 05:59:51;;;;;;;35.25;20.45;;;;;;;;;;732469;192;918454;-64
2022/11/19 06:02:17;;;;;;;33.63;21.20;;;;;;;;;;729957;192;811516;-64
2022/11/19 06:04:43;;;;;;;67.53;42.03;;;;;;;;;;728516;189;917072;-67
2022/11/19 06:07:09;;;;;;;38.10;24.05;;;;;;;;;;733752;191;917292;-63
2022/11/19 06:09:35;;;;;;;40.67;24.20;;;;;;;;;;731317;188;908640;-65
2022/11/19 06:12:01;;;;;;;60.90;36.93;;;;;;;;;;733901;191;919476;-65
2022/11/19 06:14:26;;;;;;;47.53;30.75;;;;;;;;;;736438;187;917898;-65
2022/11/19 06:16:53;;;;;;;35.70;22.90;;;;;;;;;;744055;188;919309;-64
2022/11/19 06:19:19;;;;;;;41.03;21.20;;;;;;;;;;733117;191;918669;-64
2022/11/19 06:21:45;;;;;;;33.80;21.93;;;;;;;;;;728609;191;918442;-64
2022/11/19 06:24:11;;;;;;;41.00;25.33;;;;;;;;;;736487;189;826036;-64
2022/11/19 06:26:37;;;;;;;52.30;31.62;;;;;;;;;;731346;191;930949;-65
2022/11/19 06:29:02;;;;;;;54.43;31.00;;;;;;;;;;727209;192;919186;-65
2022/11/19 06:31:28;;;;;;;44.83;29.40;;;;;;;;;;733532;191;920103;-65
2022/11/19 06:33:54;;;;;;;44.87;25.53;;;;;;;;;;730586;191;909573;-64
2022/11/19 06:36:20;;;;;;;35.87;21.43;;;;;;;;;;729200;191;911089;-65
2022/11/19 06:38:46;;;;;;;40.67;22.83;;;;;;;;;;730449;191;916441;-64
2022/11/19 06:41:12;;;;;;;42.07;23.10;;;;;;;;;;743351;186;826881;-66
2022/11/19 06:43:38;;;;;;;39.10;20.23;;;;;;;;;;728609;188;921438;-65
2022/11/19 06:46:03;;;;;;;42.45;25.70;;;;;;;;;;734199;190;1022935;-66
2022/11/19 06:48:29;;;;;;;44.93;25.87;;;;;;;;;;732932;191;916612;-65
2022/11/19 06:50:55;;;;;;;59.50;32.07;;;;;;;;;;735541;189;927952;-65
2022/11/19 06:53:21;;;;;;;63.53;31.98;;;;;;;;;;737920;190;816468;-65
2022/11/19 06:55:47;;;;;;;33.90;20.23;;;;;;;;;;737871;191;918609;-65
2022/11/19 06:58:14;;;;;;;44.90;23.50;;;;;;;;;;724390;191;919680;-65
2022/11/19 07:00:39;;;;;;;35.17;19.73;;;;;;;;;;730196;191;947119;-64
2022/11/19 07:03:05;;;;;;;45.72;30.00;;;;;;;;;;732227;191;919532;-65
2022/11/19 07:05:31;;;;;;;38.33;23.77;;;;;;;;;;740252;188;918579;-65
2022/11/19 07:07:57;;;;;;;40.37;22.77;;;;;;;;;;731136;191;913876;-65
2022/11/19 07:10:23;;;;;;;42.30;24.90;;;;;;;;;;731180;191;797700;-65
2022/11/19 07:12:49;;;;;;;39.90;25.23;;;;;;;;;;735056;190;919435;-67
2022/11/19 07:15:15;;;;;;;51.47;27.00;;;;;;;;;;733353;191;817337;-64
2022/11/19 07:17:41;;;;;;;47.13;26.90;;;;;;;;;;731683;189;917038;-65
2022/11/19 07:20:07;;;;;;;42.50;25.97;;;;;;;;;;738901;190;920500;-64
2022/11/19 07:22:33;;;;;;;27.43;17.30;;;;;;;;;;730384;190;919932;-64
2022/11/19 07:24:59;;;;;;;31.90;18.20;;;;;;;;;;732345;191;892587;-64
2022/11/19 07:27:25;;;;;;;27.43;17.10;;;;;;;;;;734886;191;815797;-65
2022/11/19 07:29:51;;;;;;;48.37;26.23;;;;;;;;;;732920;192;633181;-67
2022/11/19 07:32:18;;;;;;;57.20;32.60;;;;;;;;;;731743;191;715606;-64
2022/11/19 07:34:44;;;;;;;53.13;27.67;;;;;;;;;;729252;191;815736;-65
2022/11/19 07:37:12;;;;;;;118.22;61.28;;;;;;;;;;733976;191;915519;-65
2022/11/19 07:39:37;;;;;;;201.63;97.37;;;;;;;;;;730517;189;916291;-65
2022/11/19 07:44:36;;;;;;;302.30;118.63;;;;;;;;;;731143;189;919578;-67
2022/11/19 07:47:02;;;;;;;47.00;29.80;;;;;;;;;;734615;188;939904;-66
2022/11/19 07:49:28;;;;;;;27.00;17.83;;;;;;;;;;732196;190;826590;-66
2022/11/19 07:51:55;;;;;;;24.07;15.60;;;;;;;;;;729551;191;918356;-66
2022/11/19 07:54:20;;;;;;;22.43;14.27;;;;;;;;;;738311;191;810941;-66
2022/11/19 07:56:46;;;;;;;18.87;12.60;;;;;;;;;;728480;191;918775;-66
2022/11/19 07:59:12;;;;;;;24.13;12.70;;;;;;;;;;729042;189;919500;-65
2022/11/19 08:01:38;;;;;;;21.17;13.15;;;;;;;;;;733605;192;919712;-66
2022/11/19 08:04:04;;;;;;;35.07;17.70;;;;;;;;;;730038;189;917483;-66
2022/11/19 08:06:32;;;;;;;27.07;15.47;;;;;;;;;;729531;190;918316;-67
2022/11/19 08:08:56;;;;;;;26.07;13.47;;;;;;;;;;734138;189;918493;-68
2022/11/19 08:11:21;;;;;;;19.63;12.00;;;;;;;;;;733732;189;919487;-68
2022/11/19 08:13:47;;;;;;;20.50;13.80;;;;;;;;;;728109;187;915973;-69
2022/11/19 08:18:10;;;;;;;20.50;11.77;;;;;;;;;;727811;191;817038;-70
2022/11/19 08:18:40;;;;;;;14.63;8.50;;;;;;;;;;738212;187;920684;-67
2022/11/19 08:21:08;;;;;;;17.73;11.67;;;;;;;;;;730551;191;917940;-67
2022/11/19 08:23:34;;;;;;;14.97;11.53;;;;;;;;;;732366;191;919325;-68
2022/11/19 08:26:00;;;;;;;30.03;22.90;;;;;;;;;;736250;191;918757;-67
2022/11/19 08:28:25;;;;;;;21.93;15.40;;;;;;;;;;732621;190;827575;-67
2022/11/19 08:30:51;;;;;;;26.37;18.37;;;;;;;;;;731495;190;842837;-71
2022/11/19 08:33:17;;;;;;;15.73;10.47;;;;;;;;;;729981;190;932151;-73
2022/11/19 08:35:43;;;;;;;17.17;12.77;;;;;;;;;;733622;191;916300;-71
2022/11/19 08:38:09;;;;;;;16.87;11.23;;;;;;;;;;730678;190;915940;-64
2022/11/19 08:40:36;;;;;;;36.67;22.90;;;;;;;;;;730407;191;1003142;-64
2022/11/19 08:43:02;;;;;;;22.60;13.03;;;;;;;;;;739240;191;930324;-69
2022/11/19 08:45:30;;;;;;;17.62;14.48;;;;;;;;;;728724;191;910948;-70
2022/11/19 08:47:56;;;;;;;14.07;9.20;;;;;;;;;;728824;190;919166;-69
2022/11/19 08:50:23;;;;;;;19.47;13.57;;;;;;;;;;728529;191;918675;-68
2022/11/19 08:52:52;;;;;;;19.80;12.00;;;;;;;;;;737080;191;818481;-69
2022/11/19 08:55:18;;;;;;;16.53;11.57;;;;;;;;;;733213;191;918587;-68
2022/11/19 08:57:44;;;;;;;52.57;23.50;;;;;;;;;;727915;188;921480;-69
2022/11/19 09:00:11;;;;;;;21.90;13.80;;;;;;;;;;734127;192;919306;-68
2022/11/19 09:02:36;;;;;;;18.10;11.67;;;;;;;;;;730021;190;886048;-67
2022/11/19 09:05:02;;;;;;;13.50;8.57;;;;;;;;;;729663;191;914095;-67
2022/11/19 09:07:28;;;;;;;13.53;8.63;;;;;;;;;;739578;191;919794;-67
2022/11/19 09:09:55;;;;;;;12.63;8.97;;;;;;;;;;727188;191;918792;-67
2022/11/19 09:12:20;;;;;;;12.20;7.77;;;;;;;;;;726833;192;919095;-68
2022/11/19 09:14:46;;;;;;;10.97;6.63;;;;;;;;;;730835;190;817153;-67
2022/11/19 09:17:12;;;;;;;17.43;11.63;;;;;;;;;;737198;190;917380;-63
2022/11/19 09:19:38;;;;;;;13.88;10.07;;;;;;;;;;731491;190;1025417;-67
2022/11/19 09:22:04;;;;;;;12.20;7.70;;;;;;;;;;731602;190;917241;-68
2022/11/19 09:24:30;;;;;;;14.07;8.40;;;;;;;;;;734925;191;918740;-66
2022/11/19 09:26:57;;;;;;;22.73;10.10;;;;;;;;;;730706;191;919080;-67
2022/11/19 09:29:24;;;;;;;11.80;8.27;;;;;;;;;;729320;191;920515;-66
2022/11/19 09:31:49;;;;;;;19.00;12.50;;;;;;;;;;734443;191;917801;-66
2022/11/19 09:34:15;;;;;;;16.13;11.20;;;;;;;;;;745941;187;919061;-66
2022/11/19 09:36:41;;;;;;;14.90;10.23;;;;;;;;;;733306;190;918727;-66
2022/11/19 09:39:07;;;;;;;23.60;14.30;;;;;;;;;;729098;190;919394;-66
2022/11/19 09:41:35;;;;;;;19.70;12.70;;;;;;;;;;736883;191;837642;-66
2022/11/19 09:44:04;;;;;;;23.50;15.07;;;;;;;;;;730782;189;926477;-66
2022/11/19 09:46:31;;;;;;;17.40;12.57;;;;;;;;;;725319;190;818448;-65
2022/11/19 09:48:57;;;;;;;21.77;14.25;;;;;;;;;;731638;188;919166;-65
2022/11/19 09:51:25;;;;;;;21.07;14.53;;;;;;;;;;743082;188;919839;-66
2022/11/19 09:53:51;;;;;;;24.03;15.73;;;;;;;;;;733432;189;827461;-67
2022/11/19 09:56:17;;;;;;;17.43;11.27;;;;;;;;;;731600;191;920418;-66
2022/11/19 09:58:42;;;;;;;18.83;12.07;;;;;;;;;;732243;190;918229;-66
2022/11/19 10:01:09;;;;;;;20.67;12.43;;;;;;;;;;730850;191;918690;-65
2022/11/19 10:03:36;;;;;;;20.33;13.80;;;;;;;;;;729365;191;919116;-66
2022/11/19 10:06:08;;;;;;;17.85;10.57;;;;;;;;;;733750;191;918629;-66
2022/11/19 10:08:49;;;;;;;19.57;11.07;;;;;;;;;;733490;191;917555;-66
2022/11/19 10:11:18;;;;;;;19.33;13.40;;;;;;;;;;733317;191;934419;-66
2022/11/19 10:13:45;;;;;;;21.43;12.27;;;;;;;;;;730594;190;919450;-65
2022/11/19 10:16:17;;;;;;;21.87;13.90;;;;;;;;;;721342;191;919357;-65
2022/11/19 10:18:53;;;;;;;19.97;10.93;;;;;;;;;;725784;188;918990;-66
2022/11/19 10:21:25;;;;;;;15.13;11.17;;;;;;;;;;733165;191;919048;-66
2022/11/19 10:23:53;;;;;;;21.40;12.57;;;;;;;;;;737216;189;919658;-66
2022/11/19 10:26:17;;;;;;;23.13;13.67;;;;;;;;;;731685;190;919226;-65
2022/11/19 10:28:43;;;;;;;17.20;10.80;;;;;;;;;;733964;187;918969;-66
2022/11/19 10:31:11;;;;;;;18.00;11.20;;;;;;;;;;740743;190;919938;-68
2022/11/19 10:33:51;;;;;;;18.00;11.83;;;;;;;;;;730328;190;917294;-65
2022/11/19 10:36:16;;;;;;;19.73;11.70;;;;;;;;;;725557;191;919529;-66
2022/11/19 10:38:47;;;;;;;20.20;13.07;;;;;;;;;;731818;189;920938;-67
2022/11/19 10:41:13;;;;;;;10.50;5.30;;;;;;;;;;734837;191;918038;-66
2022/11/19 10:43:40;;;;;;;20.53;13.10;;;;;;;;;;731031;191;875818;-66
2022/11/19 10:46:05;;;;;;;25.90;12.10;;;;;;;;;;732742;191;920580;-66
2022/11/19 10:48:36;;;;;;;24.17;14.03;;;;;;;;;;730575;191;852306;-67
2022/11/19 10:51:01;;;;;;;25.53;12.93;;;;;;;;;;733554;191;918804;-66
2022/11/19 10:53:35;;;;;;;22.43;12.73;;;;;;;;;;730798;190;920759;-67
2022/11/19 10:55:58;;;;;;;18.90;12.47;;;;;;;;;;732632;191;814974;-67
2022/11/19 10:58:24;;;;;;;18.57;13.73;;;;;;;;;;729574;189;909477;-66
2022/11/19 11:00:50;;;;;;;15.03;10.50;;;;;;;;;;734213;191;914998;-66
2022/11/19 11:03:20;;;;;;;19.77;12.10;;;;;;;;;;727515;191;932239;-66
2022/11/19 11:05:52;;;;;;;48.97;24.27;;;;;;;;;;724611;191;919300;-65
2022/11/19 11:08:18;;;;;;;28.38;16.85;;;;;;;;;;733297;189;919711;-66
2022/11/19 11:10:45;;;;;;;30.80;16.70;;;;;;;;;;737188;190;919498;-65
2022/11/19 11:15:49;;;;;;;35.67;18.60;;;;;;;;;;730394;192;902252;-66
2022/11/19 11:18:14;;;;;;;27.07;15.77;;;;;;;;;;730604;191;915740;-66
2022/11/19 11:20:46;;;;;;;39.70;20.77;;;;;;;;;;742685;187;919247;-66
2022/11/19 11:23:14;;;;;;;146.17;76.43;;;;;;;;;;734169;191;922355;-64
2022/11/19 11:25:40;;;;;;;124.93;66.20;;;;;;;;;;728669;191;922460;-65
2022/11/19 11:28:06;;;;;;;179.00;70.47;;;;;;;;;;732007;191;919174;-65
2022/11/19 11:30:32;;;;;;;64.73;30.63;;;;;;;;;;730565;191;919546;-65
2022/11/19 11:32:58;;;;;;;26.80;15.73;;;;;;;;;;735459;191;918114;-65
2022/11/19 11:35:26;;;;;;;26.70;16.30;;;;;;;;;;729937;191;924474;-65
2022/11/19 11:37:52;;;;;;;114.87;42.03;;;;;;;;;;732069;190;919215;-65
2022/11/19 11:40:19;;;;;;;23.40;13.40;;;;;;;;;;729197;190;905517;-65
2022/11/19 11:42:45;;;;;;;23.00;13.30;;;;;;;;;;731239;191;918957;-65
2022/11/19 11:45:11;;;;;;;19.13;14.00;;;;;;;;;;738738;190;921598;-64
2022/11/19 11:47:36;;;;;;;60.27;31.40;;;;;;;;;;735072;190;919789;-63
2022/11/19 11:50:04;;;;;;;46.10;24.57;;;;;;;;;;730603;190;919607;-64
2022/11/19 11:52:35;;;;;;;20.23;12.83;;;;;;;;;;730770;191;915966;-63
2022/11/19 11:55:01;;;;;;;17.10;12.47;;;;;;;;;;742975;188;809939;-62
2022/11/19 11:57:28;;;;;;;16.23;10.77;;;;;;;;;;724607;190;813366;-63
2022/11/19 11:59:54;;;;;;;20.47;14.30;;;;;;;;;;731300;191;914515;-61
2022/11/19 12:02:25;;;;;;;17.70;11.57;;;;;;;;;;734491;190;919672;-63
2022/11/19 12:04:50;;;;;;;22.57;14.13;;;;;;;;;;737196;191;918733;-61
2022/11/19 12:07:25;;;;;;;32.28;19.98;;;;;;;;;;728490;191;919302;-60
2022/11/19 12:09:53;;;;;;;27.50;17.80;;;;;;;;;;731995;191;920648;-61
2022/11/19 12:12:20;;;;;;;20.30;16.00;;;;;;;;;;733374;191;918873;-59
2022/11/19 12:14:51;;;;;;;20.90;14.03;;;;;;;;;;733136;191;919159;-63
2022/11/19 12:17:32;;;;;;;26.87;17.33;;;;;;;;;;731349;191;919464;-61
2022/11/19 12:20:01;;;;;;;19.53;12.77;;;;;;;;;;729562;191;895118;-59
2022/11/19 12:22:27;;;;;;;40.10;27.47;;;;;;;;;;728460;190;919932;-62
2022/11/19 12:24:53;;;;;;;31.77;20.70;;;;;;;;;;733581;191;919007;-62
2022/11/19 12:27:37;;;;;;;41.33;29.00;;;;;;;;;;728304;190;922391;-60
2022/11/19 12:30:04;;;;;;;33.33;21.17;;;;;;;;;;733441;191;892349;-60
2022/11/19 12:32:38;;;;;;;21.70;14.23;;;;;;;;;;744238;182;816601;-70
2022/11/19 12:35:09;;;;;;;27.07;18.07;;;;;;;;;;760012;184;918762;-69
2022/11/19 12:37:36;;;;;;;23.10;13.83;;;;;;;;;;757853;184;1037311;-69
2022/11/19 12:40:03;;;;;;;20.63;13.00;;;;;;;;;;759953;184;918912;-69
2022/11/19 12:42:35;;;;;;;21.80;14.37;;;;;;;;;;756683;184;918851;-69
2022/11/19 12:45:00;;;;;;;23.33;15.93;;;;;;;;;;755688;181;947832;-69
2022/11/19 12:47:27;;;;;;;309.00;129.80;;;;;;;;;;759794;184;1008025;-69
2022/11/19 12:50:10;;;;;;;50.77;31.73;;;;;;;;;;766661;183;918622;-70
2022/11/19 12:52:35;;;;;;;25.70;16.60;;;;;;;;;;766734;183;929397;-70
2022/11/19 12:55:03;;;;;;;21.80;13.33;;;;;;;;;;759560;184;918155;-70
2022/11/19 12:57:36;;;;;;;31.00;20.03;;;;;;;;;;747314;184;918957;-70
2022/11/19 13:00:18;;;;;;;37.27;20.30;;;;;;;;;;763273;183;919080;-69
2022/11/19 13:02:46;;;;;;;22.93;15.20;;;;;;;;;;763138;182;1020714;-70
2022/11/19 13:05:11;;;;;;;29.90;18.27;;;;;;;;;;757634;183;919285;-69
2022/11/19 13:07:37;;;;;;;141.50;60.97;;;;;;;;;;757125;184;919382;-70
2022/11/19 13:10:05;;;;;;;28.83;20.83;;;;;;;;;;755951;184;981677;-70
2022/11/19 13:12:41;;;;;;;34.10;22.37;;;;;;;;;;757360;184;922083;-70
2022/11/19 13:15:08;;;;;;;21.63;13.03;;;;;;;;;;764801;184;916115;-70
2022/11/19 13:17:34;;;;;;;22.30;15.00;;;;;;;;;;758253;184;936127;-69
2022/11/19 13:20:10;;;;;;;25.40;16.30;;;;;;;;;;760414;183;916623;-70
2022/11/19 13:22:36;;;;;;;29.80;14.20;;;;;;;;;;759603;182;920430;-70
2022/11/19 13:25:01;;;;;;;32.20;17.00;;;;;;;;;;753558;184;916854;-69
2022/11/19 13:27:28;;;;;;;27.23;14.77;;;;;;;;;;754203;184;918934;-68
2022/11/19 13:29:54;;;;;;;18.97;13.50;;;;;;;;;;757493;184;918482;-69
2022/11/19 13:32:22;;;;;;;21.73;14.90;;;;;;;;;;768682;183;919694;-70
2022/11/19 13:34:49;;;;;;;29.97;18.47;;;;;;;;;;756975;183;932774;-69
2022/11/19 13:37:17;;;;;;;27.33;16.90;;;;;;;;;;751820;185;919474;-69
2022/11/19 13:39:45;;;;;;;19.93;13.40;;;;;;;;;;766923;183;900203;-70
2022/11/19 13:44:42;;;;;;;26.90;15.70;;;;;;;;;;759180;183;918130;-70
2022/11/19 13:47:09;;;;;;;23.63;14.10;;;;;;;;;;755251;184;919626;-70
2022/11/19 13:49:36;;;;;;;24.93;15.77;;;;;;;;;;762858;183;919779;-68
2022/11/19 13:52:01;;;;;;;25.67;15.90;;;;;;;;;;761315;180;918587;-69
2022/11/19 13:54:27;;;;;;;42.40;27.37;;;;;;;;;;759919;183;921014;-69
2022/11/19 13:56:53;;;;;;;54.30;31.60;;;;;;;;;;755905;184;919334;-69
2022/11/19 13:59:29;;;;;;;22.47;15.00;;;;;;;;;;759750;183;1021324;-70
2022/11/19 14:01:59;;;;;;;34.78;21.92;;;;;;;;;;758210;182;918079;-69
2022/11/19 14:04:25;;;;;;;32.73;20.83;;;;;;;;;;759235;183;918495;-69
2022/11/19 14:06:53;;;;;;;23.63;15.40;;;;;;;;;;755838;183;921214;-69
2022/11/19 14:09:30;;;;;;;24.60;16.37;;;;;;;;;;762766;181;918790;-69
2022/11/19 14:12:09;;;;;;;31.20;19.57;;;;;;;;;;761287;183;922490;-69
2022/11/19 14:27:29;;;;;;;32.13;18.20;;;;;;;;;;760668;183;918512;-70
2022/11/19 14:29:56;;;;;;;31.00;20.20;;;;;;;;;;753435;184;919998;-70
2022/11/19 14:32:28;;;;;;;70.60;37.37;;;;;;;;;;757043;183;1020701;-69
2022/11/19 14:34:59;;;;;;;37.57;22.80;;;;;;;;;;760339;183;918307;-69
2022/11/19 14:37:29;;;;;;;23.83;16.33;;;;;;;;;;762161;184;919120;-69
2022/11/19 14:39:55;;;;;;;19.30;12.40;;;;;;;;;;757196;184;919355;-69
2022/11/19 14:42:21;;;;;;;26.93;14.33;;;;;;;;;;755322;183;1022099;-69
2022/11/19 14:44:53;;;;;;;23.87;13.85;;;;;;;;;;755230;183;988631;-69
2022/11/19 14:47:31;;;;;;;22.47;14.60;;;;;;;;;;759295;184;922963;-69